createdAt,value
2022-12-29T00:00:04.333Z,31.35
2022-12-29T00:02:31.687Z,29.13
2022-12-29T00:04:58.941Z,33.47
2022-12-29T00:07:26.094Z,27.92
2022-12-29T00:09:53.309Z,29.67
2022-12-29T00:12:20.499Z,42.53
2022-12-29T00:15:06.218Z,32.38
2022-12-29T00:17:34.310Z,22.90
2022-12-29T00:20:20.365Z,32.03
2022-12-29T00:23:06.200Z,36.70
2022-12-29T00:25:52.035Z,25.33
2022-12-29T00:28:38.175Z,39.00
2022-12-29T00:31:28.164Z,39.60
2022-12-29T00:34:13.931Z,28.27
2022-12-29T00:36:43.042Z,36.42
2022-12-29T00:39:36.901Z,20.90
2022-12-29T00:42:23.647Z,26.30
2022-12-29T00:44:50.852Z,38.75
2022-12-29T00:47:18.338Z,37.30
2022-12-29T00:49:45.608Z,26.65
2022-12-29T00:52:13.557Z,31.42
2022-12-29T00:54:41.982Z,26.48
2022-12-29T00:57:10.482Z,35.08
2022-12-29T00:59:38.150Z,36.05
2022-12-29T01:02:05.343Z,32.85
2022-12-29T01:04:32.663Z,29.02
2022-12-29T01:07:00.212Z,33.60
2022-12-29T01:09:45.904Z,28.85
2022-12-29T01:12:13.569Z,26.23
2022-12-29T01:14:41.552Z,41.55
2022-12-29T01:17:08.810Z,25.77
2022-12-29T01:19:36.042Z,27.77
2022-12-29T01:22:03.460Z,25.38
2022-12-29T01:24:30.770Z,34.63
2022-12-29T01:26:57.964Z,34.10
2022-12-29T01:29:25.237Z,28.90
2022-12-29T01:31:52.747Z,46.63
2022-12-29T01:34:19.976Z,10.90
2022-12-29T01:36:47.148Z,17.10
2022-12-29T01:39:14.529Z,21.15
2022-12-29T01:41:41.858Z,23.45
2022-12-29T01:44:27.906Z,21.00
2022-12-29T01:46:55.321Z,14.35
2022-12-29T01:49:28.726Z,24.38
2022-12-29T01:51:58.165Z,13.93
2022-12-29T01:54:45.803Z,29.23
2022-12-29T01:57:14.931Z,33.72
2022-12-29T01:59:44.548Z,41.13
2022-12-29T02:02:12.002Z,35.30
2022-12-29T02:04:42.157Z,29.65
2022-12-29T02:07:15.884Z,28.80
2022-12-29T02:09:44.089Z,16.10
2022-12-29T02:12:11.598Z,29.95
2022-12-29T02:14:38.844Z,20.15
2022-12-29T02:17:05.977Z,22.90
2022-12-29T02:19:51.640Z,19.00
2022-12-29T02:22:27.812Z,32.90
2022-12-29T02:25:06.306Z,35.15
2022-12-29T02:27:53.350Z,16.90
2022-12-29T02:30:29.889Z,22.80
2022-12-29T02:33:03.033Z,19.38
2022-12-29T02:35:31.839Z,18.23
2022-12-29T02:38:10.975Z,41.65
2022-12-29T02:40:45.096Z,24.75
2022-12-29T02:43:18.331Z,40.80
2022-12-29T02:45:51.902Z,26.63
2022-12-29T02:48:25.294Z,23.25
2022-12-29T02:51:10.910Z,25.10
2022-12-29T02:53:57.368Z,20.67
2022-12-29T02:56:24.616Z,17.33
2022-12-29T02:58:51.756Z,21.55
2022-12-29T03:01:31.452Z,19.33
2022-12-29T03:03:58.706Z,19.15
2022-12-29T03:06:28.647Z,12.23
2022-12-29T03:08:59.809Z,20.40
2022-12-29T03:11:48.637Z,39.30
2022-12-29T03:14:57.581Z,33.88
2022-12-29T03:17:31.141Z,24.75
2022-12-29T03:20:05.891Z,23.15
2022-12-29T03:22:34.371Z,33.72
2022-12-29T03:25:21.824Z,32.55
2022-12-29T03:27:51.662Z,30.05
2022-12-29T03:30:19.359Z,41.97
2022-12-29T03:33:04.095Z,31.98
2022-12-29T03:35:33.568Z,35.33
2022-12-29T03:38:03.102Z,28.48
2022-12-29T03:40:30.645Z,37.90
2022-12-29T03:42:57.885Z,30.00
2022-12-29T03:45:25.112Z,45.03
2022-12-29T03:47:52.771Z,38.67
2022-12-29T03:50:19.966Z,19.77
2022-12-29T03:52:47.314Z,32.38
2022-12-29T03:55:14.577Z,39.20
2022-12-29T03:57:41.767Z,49.15
2022-12-29T04:00:09.252Z,30.35
2022-12-29T04:02:36.578Z,41.95
2022-12-29T04:05:04.199Z,49.50
2022-12-29T04:07:31.366Z,36.20
2022-12-29T04:09:58.501Z,29.55
2022-12-29T04:12:25.661Z,30.67
2022-12-29T04:14:52.869Z,36.63
2022-12-29T04:17:20.212Z,21.17
2022-12-29T04:19:47.464Z,33.25
2022-12-29T04:22:14.674Z,49.55
2022-12-29T04:24:41.871Z,26.10
2022-12-29T04:27:09.036Z,28.80
2022-12-29T04:29:36.209Z,25.65
2022-12-29T04:32:03.376Z,29.10
2022-12-29T04:34:30.560Z,36.15
2022-12-29T04:36:57.722Z,38.75
2022-12-29T04:39:24.879Z,45.95
2022-12-29T04:41:52.028Z,54.90
2022-12-29T04:44:19.290Z,39.75
2022-12-29T04:46:46.570Z,47.80
2022-12-29T04:49:13.941Z,29.75
2022-12-29T04:51:41.529Z,32.28
2022-12-29T04:54:08.682Z,42.33
2022-12-29T04:56:36.009Z,45.90
2022-12-29T04:59:03.193Z,45.65
2022-12-29T05:01:30.406Z,33.10
2022-12-29T05:03:57.801Z,45.40
2022-12-29T05:06:25.095Z,44.42
2022-12-29T05:08:52.316Z,63.58
2022-12-29T05:11:19.455Z,34.65
2022-12-29T05:13:47.761Z,31.27
2022-12-29T05:16:15.051Z,37.58
2022-12-29T05:18:42.302Z,46.22
2022-12-29T05:21:09.529Z,51.70
2022-12-29T05:23:36.796Z,39.55
2022-12-29T05:26:03.998Z,47.30
2022-12-29T05:28:31.165Z,52.88
2022-12-29T05:30:58.361Z,50.72
2022-12-29T05:33:25.543Z,38.42
2022-12-29T05:35:52.808Z,29.23
2022-12-29T05:38:19.989Z,42.58
2022-12-29T05:40:47.180Z,35.95
2022-12-29T05:43:14.393Z,55.28
2022-12-29T05:45:41.756Z,39.03
2022-12-29T05:48:08.944Z,48.78
2022-12-29T05:50:36.101Z,36.50
2022-12-29T05:53:03.439Z,57.13
2022-12-29T05:55:30.584Z,30.85
2022-12-29T05:57:57.958Z,33.22
2022-12-29T06:00:25.240Z,39.45
2022-12-29T06:02:52.723Z,44.45
2022-12-29T06:05:20.150Z,49.72
2022-12-29T06:07:47.453Z,34.78
2022-12-29T06:10:14.655Z,41.00
2022-12-29T06:12:41.860Z,29.13
2022-12-29T06:15:09.176Z,30.35
2022-12-29T06:17:36.419Z,29.77
2022-12-29T06:20:04.111Z,32.28
2022-12-29T06:22:31.409Z,27.77
2022-12-29T06:25:04.644Z,26.00
2022-12-29T06:27:32.819Z,40.20
2022-12-29T06:30:00.019Z,22.98
2022-12-29T06:32:27.195Z,25.05
2022-12-29T06:34:54.340Z,40.95
2022-12-29T06:37:21.561Z,25.80
2022-12-29T06:39:48.721Z,18.40
2022-12-29T06:42:15.955Z,27.70
2022-12-29T06:44:43.830Z,26.95
2022-12-29T06:47:11.112Z,38.90
2022-12-29T06:49:38.246Z,22.63
2022-12-29T06:52:10.806Z,29.60
2022-12-29T06:54:39.785Z,15.07
2022-12-29T06:57:06.979Z,30.67
2022-12-29T06:59:34.550Z,26.13
2022-12-29T07:02:03.392Z,25.70
2022-12-29T07:04:31.091Z,15.93
2022-12-29T07:06:58.335Z,21.90
2022-12-29T07:09:25.646Z,25.33
2022-12-29T07:11:52.854Z,33.92
2022-12-29T07:14:20.082Z,18.88
2022-12-29T07:16:47.398Z,26.42
2022-12-29T07:19:14.697Z,19.17
2022-12-29T07:21:47.973Z,14.52
2022-12-29T07:24:15.197Z,12.85
2022-12-29T07:26:42.827Z,21.02
2022-12-29T07:29:10.067Z,14.00
2022-12-29T07:31:37.333Z,15.15
2022-12-29T07:34:04.628Z,16.35
2022-12-29T07:36:34.587Z,10.45
2022-12-29T07:39:02.287Z,14.50
2022-12-29T07:41:29.467Z,13.55
2022-12-29T07:43:56.793Z,7.55
2022-12-29T07:46:55.361Z,13.50
2022-12-29T07:49:11.196Z,6.78
2022-12-29T07:51:38.337Z,17.50
2022-12-29T07:54:05.713Z,12.10
2022-12-29T07:56:32.969Z,14.55
2022-12-29T07:59:00.154Z,15.35
2022-12-29T08:01:27.492Z,7.85
2022-12-29T08:03:57.527Z,14.38
2022-12-29T08:06:25.010Z,11.48
2022-12-29T08:08:52.411Z,11.75
2022-12-29T08:11:19.656Z,19.67
2022-12-29T08:13:46.863Z,11.82
2022-12-29T08:16:14.021Z,15.23
2022-12-29T08:18:41.252Z,23.10
2022-12-29T08:21:08.482Z,6.38
2022-12-29T08:23:35.688Z,16.23
2022-12-29T08:26:03.723Z,21.17
2022-12-29T08:28:31.363Z,13.85
2022-12-29T08:30:59.502Z,9.95
2022-12-29T08:33:26.876Z,20.00
2022-12-29T08:35:54.065Z,19.25
2022-12-29T08:38:21.289Z,18.90
2022-12-29T08:40:48.442Z,15.57
2022-12-29T08:43:18.538Z,16.63
2022-12-29T08:45:46.011Z,13.93
2022-12-29T08:48:13.130Z,19.70
2022-12-29T08:50:40.395Z,16.17
2022-12-29T08:53:07.596Z,22.02
2022-12-29T08:55:34.785Z,20.65
2022-12-29T08:58:01.974Z,26.52
2022-12-29T09:00:29.148Z,16.98
2022-12-29T09:02:56.513Z,26.27
2022-12-29T09:05:23.838Z,22.25
2022-12-29T09:07:51.433Z,21.63
2022-12-29T09:10:18.628Z,15.35
2022-12-29T09:12:46.074Z,14.18
2022-12-29T09:15:13.818Z,20.88
2022-12-29T09:17:47.021Z,14.35
2022-12-29T09:20:18.544Z,17.02
2022-12-29T09:22:45.929Z,21.80
2022-12-29T09:25:13.230Z,14.60
2022-12-29T09:27:41.138Z,23.83
2022-12-29T09:30:09.850Z,26.42
2022-12-29T09:32:43.559Z,13.52
2022-12-29T09:35:12.254Z,22.92
2022-12-29T09:37:39.467Z,21.23
2022-12-29T09:40:07.520Z,22.48
2022-12-29T09:42:34.668Z,20.95
2022-12-29T09:45:11.015Z,15.70
2022-12-29T09:47:38.613Z,16.00
2022-12-29T09:50:10.815Z,10.15
2022-12-29T09:52:39.937Z,17.80
2022-12-29T09:55:13.537Z,16.83
2022-12-29T09:57:49.426Z,14.00
2022-12-29T10:00:18.516Z,9.15
2022-12-29T10:02:48.257Z,23.20
2022-12-29T10:05:21.632Z,12.75
2022-12-29T10:08:04.289Z,10.55
2022-12-29T10:10:40.463Z,14.60
2022-12-29T10:13:19.855Z,13.55
2022-12-29T10:16:05.978Z,8.32
2022-12-29T10:18:33.153Z,11.73
2022-12-29T10:21:07.200Z,12.10
2022-12-29T10:23:40.717Z,16.67
2022-12-29T10:26:13.056Z,17.48
2022-12-29T10:28:46.148Z,16.98
2022-12-29T10:31:24.448Z,20.27
2022-12-29T10:33:54.003Z,11.40
2022-12-29T10:36:35.324Z,7.95
2022-12-29T10:39:29.641Z,13.88
2022-12-29T10:42:15.609Z,15.32
2022-12-29T10:44:43.142Z,15.00
2022-12-29T10:47:21.190Z,15.63
2022-12-29T10:49:49.277Z,14.85
2022-12-29T10:52:18.128Z,12.68
2022-12-29T10:54:45.309Z,13.80
2022-12-29T10:57:15.384Z,6.35
2022-12-29T10:59:43.504Z,11.10
2022-12-29T11:02:10.857Z,10.60
2022-12-29T11:04:41.111Z,10.73
2022-12-29T11:07:15.085Z,13.77
2022-12-29T11:09:44.002Z,16.77
2022-12-29T11:12:22.257Z,13.20
2022-12-29T11:15:02.059Z,10.30
2022-12-29T11:17:29.298Z,9.55
2022-12-29T11:19:56.459Z,8.80
2022-12-29T11:22:25.769Z,9.77
2022-12-29T11:24:54.056Z,11.85
2022-12-29T11:27:23.892Z,13.32
2022-12-29T11:29:52.562Z,8.13
2022-12-29T11:32:26.084Z,18.45
2022-12-29T11:34:55.526Z,7.70
2022-12-29T11:37:29.151Z,10.20
2022-12-29T11:40:06.198Z,14.43
2022-12-29T11:42:38.100Z,8.50
2022-12-29T11:45:10.847Z,8.25
2022-12-29T11:47:38.557Z,19.15
2022-12-29T11:50:09.244Z,9.80
2022-12-29T11:52:37.297Z,14.95
2022-12-29T11:55:06.870Z,15.40
2022-12-29T11:57:36.007Z,15.25
2022-12-29T12:00:05.016Z,11.60
2022-12-29T12:02:37.321Z,20.10
2022-12-29T12:05:12.072Z,27.25
2022-12-29T12:07:41.162Z,14.25
2022-12-29T12:10:12.669Z,19.55
2022-12-29T12:12:43.188Z,13.25
2022-12-29T12:15:15.250Z,21.98
2022-12-29T12:17:49.684Z,18.20
2022-12-29T12:20:16.821Z,14.98
2022-12-29T12:22:48.228Z,24.95
2022-12-29T12:25:39.098Z,22.77
2022-12-29T12:28:12.396Z,20.35
2022-12-29T12:30:42.663Z,16.30
2022-12-29T12:33:13.111Z,13.82
2022-12-29T12:35:54.060Z,27.25
2022-12-29T12:38:27.320Z,15.65
2022-12-29T12:41:09.960Z,17.58
2022-12-29T12:43:52.783Z,16.60
2022-12-29T12:46:20.353Z,18.60
2022-12-29T12:48:59.643Z,8.77
2022-12-29T12:51:44.352Z,9.00
2022-12-29T12:54:31.958Z,12.73
2022-12-29T12:57:05.237Z,54.42
2022-12-29T12:59:39.497Z,19.35
2022-12-29T13:02:25.577Z,18.83
2022-12-29T13:04:53.068Z,17.08
2022-12-29T13:07:20.297Z,27.70
2022-12-29T13:09:47.491Z,12.52
2022-12-29T13:12:29.239Z,17.25
2022-12-29T13:14:56.386Z,17.80
2022-12-29T13:17:39.140Z,19.27
2022-12-29T13:20:20.781Z,18.70
2022-12-29T13:23:11.472Z,18.48
2022-12-29T13:25:49.581Z,14.63
2022-12-29T13:28:30.096Z,19.50
2022-12-29T13:31:00.428Z,17.50
2022-12-29T13:33:49.436Z,19.88
2022-12-29T13:36:27.563Z,17.45
2022-12-29T13:39:06.915Z,21.50
2022-12-29T13:41:37.336Z,13.55
2022-12-29T13:44:05.047Z,16.50
2022-12-29T13:46:37.458Z,17.30
2022-12-29T13:49:14.545Z,31.63
2022-12-29T13:51:49.360Z,21.40
2022-12-29T13:54:35.038Z,17.33
2022-12-29T13:57:02.273Z,20.20
2022-12-29T13:59:41.748Z,21.08
2022-12-29T14:02:18.263Z,14.15
2022-12-29T14:05:05.862Z,18.42
2022-12-29T14:07:39.116Z,16.73
2022-12-29T14:10:06.949Z,15.38
2022-12-29T14:12:37.214Z,21.63
2022-12-29T14:15:13.572Z,11.63
2022-12-29T14:17:41.978Z,14.68
2022-12-29T14:20:19.816Z,20.08
2022-12-29T14:22:59.260Z,21.65
2022-12-29T14:25:45.106Z,26.98
2022-12-29T14:28:24.338Z,22.63
2022-12-29T14:30:54.387Z,18.67
2022-12-29T14:33:22.902Z,16.30
2022-12-29T14:35:50.742Z,11.65
2022-12-29T14:38:22.988Z,14.20
2022-12-29T14:40:50.535Z,19.20
2022-12-29T14:43:23.508Z,21.80
2022-12-29T14:45:54.698Z,16.60
2022-12-29T14:48:36.201Z,20.02
2022-12-29T14:51:03.853Z,27.58
2022-12-29T14:53:43.449Z,26.52
2022-12-29T14:56:12.051Z,18.40
2022-12-29T14:58:50.263Z,22.60
2022-12-29T15:01:29.051Z,23.42
2022-12-29T15:03:59.353Z,18.10
2022-12-29T15:06:29.605Z,18.67
2022-12-29T15:09:18.535Z,24.90
2022-12-29T15:11:49.788Z,25.38
2022-12-29T15:14:29.136Z,15.18
2022-12-29T15:16:56.495Z,23.63
2022-12-29T15:19:24.398Z,16.90
2022-12-29T15:21:51.749Z,12.18
2022-12-29T15:24:19.114Z,23.25
2022-12-29T15:26:48.780Z,22.58
2022-12-29T15:29:34.160Z,13.70
2022-12-29T15:32:02.978Z,15.30
2022-12-29T15:34:33.026Z,17.80
2022-12-29T15:37:00.550Z,12.95
2022-12-29T15:39:31.557Z,12.45
2022-12-29T15:42:05.004Z,11.65
2022-12-29T15:44:32.401Z,13.23
2022-12-29T15:47:03.475Z,15.35
2022-12-29T15:49:32.634Z,13.32
2022-12-29T15:52:00.231Z,14.63
2022-12-29T15:54:29.513Z,19.70
2022-12-29T15:56:57.110Z,15.63
2022-12-29T15:59:29.403Z,28.13
2022-12-29T16:01:57.952Z,12.15
2022-12-29T16:04:27.460Z,17.38
2022-12-29T16:07:02.334Z,19.35
2022-12-29T16:09:36.413Z,19.98
2022-12-29T16:12:05.226Z,26.65
2022-12-29T16:14:52.623Z,14.95
2022-12-29T16:17:22.817Z,20.60
2022-12-29T16:19:54.876Z,21.75
2022-12-29T16:22:33.093Z,18.42
2022-12-29T16:25:05.070Z,11.27
2022-12-29T16:27:43.056Z,13.82
2022-12-29T16:30:39.803Z,15.40
2022-12-29T16:33:08.321Z,9.65
2022-12-29T16:35:41.355Z,11.05
2022-12-29T16:38:14.547Z,7.82
2022-12-29T16:40:52.021Z,8.07
2022-12-29T16:43:25.071Z,13.00
2022-12-29T16:45:52.253Z,12.98
2022-12-29T16:48:19.785Z,19.15
2022-12-29T16:50:47.143Z,15.77
2022-12-29T16:53:20.464Z,23.00
2022-12-29T16:55:48.603Z,16.45
2022-12-29T16:58:23.529Z,23.48
2022-12-29T17:00:51.091Z,16.90
2022-12-29T17:03:18.339Z,14.05
2022-12-29T17:05:45.555Z,20.63
2022-12-29T17:08:23.923Z,20.52
2022-12-29T17:11:14.235Z,26.15
2022-12-29T17:13:41.715Z,18.27
2022-12-29T17:16:10.901Z,15.35
2022-12-29T17:18:38.385Z,25.92
2022-12-29T17:21:05.612Z,17.90
2022-12-29T17:23:34.955Z,20.58
2022-12-29T17:26:02.690Z,21.30
2022-12-29T17:28:32.325Z,22.45
2022-12-29T17:31:03.705Z,25.85
2022-12-29T17:33:33.617Z,16.95
2022-12-29T17:36:00.821Z,15.57
2022-12-29T17:38:32.008Z,31.10
2022-12-29T17:40:59.636Z,22.00
2022-12-29T17:43:31.498Z,15.10
2022-12-29T17:46:04.631Z,24.25
2022-12-29T17:48:31.937Z,18.20
2022-12-29T17:50:59.664Z,15.07
2022-12-29T17:53:28.604Z,21.88
2022-12-29T17:55:56.528Z,17.60
2022-12-29T17:58:28.000Z,22.83
2022-12-29T18:00:59.648Z,20.25
2022-12-29T18:03:35.169Z,26.10
2022-12-29T18:06:04.553Z,16.23
2022-12-29T18:08:32.649Z,23.42
2022-12-29T18:10:59.851Z,18.63
2022-12-29T18:13:40.471Z,20.73
2022-12-29T18:16:13.344Z,23.63
2022-12-29T18:18:40.690Z,23.42
2022-12-29T18:21:08.047Z,24.85
2022-12-29T18:23:35.403Z,21.00
2022-12-29T18:26:06.493Z,16.00
2022-12-29T18:28:33.813Z,19.77
2022-12-29T18:31:02.402Z,16.83
2022-12-29T18:33:30.201Z,20.08
2022-12-29T18:35:57.473Z,15.95
2022-12-29T18:38:24.770Z,17.90
2022-12-29T18:40:52.730Z,8.95
2022-12-29T18:43:20.580Z,25.70
2022-12-29T18:45:48.094Z,10.95
2022-12-29T18:48:16.030Z,23.15
2022-12-29T18:50:43.465Z,15.93
2022-12-29T18:53:17.441Z,18.55
2022-12-29T18:55:44.710Z,19.67
2022-12-29T18:58:12.015Z,18.20
2022-12-29T19:00:39.328Z,8.95
2022-12-29T19:03:06.796Z,25.63
2022-12-29T19:05:38.705Z,17.75
2022-12-29T19:08:06.262Z,6.53
2022-12-29T19:10:33.757Z,11.25
2022-12-29T19:13:01.189Z,25.63
2022-12-29T19:15:30.289Z,10.77
2022-12-29T19:18:33.015Z,14.55
2022-12-29T19:20:47.149Z,14.30
2022-12-29T19:23:15.746Z,16.92
2022-12-29T19:25:43.540Z,15.10
2022-12-29T19:28:21.492Z,21.55
2022-12-29T19:30:52.116Z,19.73
2022-12-29T19:33:20.006Z,22.50
2022-12-29T19:35:47.271Z,30.60
2022-12-29T19:38:14.885Z,17.20
2022-12-29T19:40:43.693Z,13.25
2022-12-29T19:43:12.196Z,10.32
2022-12-29T19:45:40.701Z,16.73
2022-12-29T19:48:15.833Z,15.32
2022-12-29T19:50:43.806Z,10.10
2022-12-29T19:53:11.577Z,10.30
2022-12-29T19:55:43.230Z,16.70
2022-12-29T19:58:10.486Z,11.57
2022-12-29T20:00:40.003Z,12.23
2022-12-29T20:03:07.527Z,15.35
2022-12-29T20:05:35.705Z,18.48
2022-12-29T20:08:03.085Z,14.13
2022-12-29T20:10:30.669Z,8.95
2022-12-29T20:12:57.885Z,17.05
2022-12-29T20:15:25.168Z,11.18
2022-12-29T20:20:39.591Z,13.88
2022-12-29T20:23:06.868Z,23.40
2022-12-29T20:25:44.773Z,18.05
2022-12-29T20:28:13.199Z,17.73
2022-12-29T20:30:40.396Z,13.00
2022-12-29T20:33:08.739Z,14.18
2022-12-29T20:35:40.687Z,15.35
2022-12-29T20:38:08.130Z,17.63
2022-12-29T20:40:42.289Z,28.40
2022-12-29T20:43:14.121Z,11.35
2022-12-29T20:45:41.372Z,18.45
2022-12-29T20:48:08.617Z,15.85
2022-12-29T20:50:35.789Z,9.88
2022-12-29T20:53:03.057Z,8.32
2022-12-29T20:55:30.297Z,18.70
2022-12-29T20:58:23.065Z,7.15
2022-12-29T21:00:44.759Z,16.05
2022-12-29T21:03:12.119Z,11.25
2022-12-29T21:05:39.622Z,12.20
2022-12-29T21:08:06.800Z,14.60
2022-12-29T21:10:33.941Z,13.65
2022-12-29T21:13:01.609Z,7.60
2022-12-29T21:15:29.944Z,13.73
2022-12-29T21:17:57.163Z,21.75
2022-12-29T21:20:31.742Z,27.90
2022-12-29T21:23:00.711Z,16.15
2022-12-29T21:25:36.757Z,22.38
2022-12-29T21:28:07.786Z,13.93
2022-12-29T21:30:35.468Z,14.93
2022-12-29T21:33:02.882Z,10.32
2022-12-29T21:35:30.578Z,18.58
2022-12-29T21:37:57.795Z,16.13
2022-12-29T21:40:25.043Z,16.33
2022-12-29T21:42:52.504Z,8.82
2022-12-29T21:45:25.890Z,14.63
2022-12-29T21:48:12.681Z,19.00
2022-12-29T21:51:01.030Z,6.63
2022-12-29T21:53:38.776Z,8.13
2022-12-29T21:56:07.395Z,15.90
2022-12-29T21:58:53.313Z,13.43
2022-12-29T22:01:39.654Z,10.23
2022-12-29T22:04:25.959Z,18.80
2022-12-29T22:07:12.247Z,11.15
2022-12-29T22:09:58.467Z,20.20
2022-12-29T22:12:44.372Z,20.63
2022-12-29T22:15:11.673Z,19.00
2022-12-29T22:17:41.333Z,21.63
2022-12-29T22:20:12.392Z,26.00
2022-12-29T22:22:39.627Z,14.93
2022-12-29T22:25:07.442Z,15.38
2022-12-29T22:27:34.724Z,13.60
2022-12-29T22:30:02.111Z,7.90
2022-12-29T22:32:29.430Z,13.57
2022-12-29T22:34:56.849Z,12.23
2022-12-29T22:37:24.165Z,13.73
2022-12-29T22:39:51.388Z,11.95
2022-12-29T22:42:18.683Z,23.88
2022-12-29T22:44:45.930Z,19.35
2022-12-29T22:47:13.181Z,17.10
2022-12-29T22:49:40.407Z,14.30
2022-12-29T22:52:07.635Z,18.10
2022-12-29T22:54:34.848Z,22.80
2022-12-29T22:57:02.022Z,19.67
2022-12-29T22:59:29.574Z,11.32
2022-12-29T23:01:56.909Z,14.65
2022-12-29T23:05:01.772Z,21.80
2022-12-29T23:07:11.418Z,19.73
2022-12-29T23:09:38.684Z,10.43
2022-12-29T23:12:05.943Z,15.55
2022-12-29T23:14:33.221Z,10.07
2022-12-29T23:17:00.451Z,15.13
2022-12-29T23:19:27.664Z,21.90
2022-12-29T23:21:54.896Z,18.10
2022-12-29T23:24:22.169Z,19.38
2022-12-29T23:26:49.462Z,16.23
2022-12-29T23:29:18.146Z,14.13
2022-12-29T23:31:45.871Z,18.52
2022-12-29T23:34:14.633Z,17.88
2022-12-29T23:36:42.162Z,23.60
2022-12-29T23:39:10.504Z,25.88
2022-12-29T23:41:37.948Z,35.65
2022-12-29T23:44:05.209Z,25.83
2022-12-29T23:46:32.559Z,23.92
2022-12-29T23:48:59.789Z,13.40
2022-12-29T23:51:27.060Z,27.38
2022-12-29T23:53:54.402Z,33.30
2022-12-29T23:56:23.053Z,30.33
2022-12-29T23:58:50.674Z,21.08
